Balloch, United Kingdom
Current Conditions -  °F | °C
As of 7:50 PM on Saturday 20 Dec 2014 (Local Time) from EGPF Reporting Station
Light Rain Light Rain  
Wind Chill: 38°   Ceiling: Unl
Heat Index: 43°   Visibility: 6mi
Dew Point: 41°   Wind: 8mph
Humidity: 93%   Direction: 240°WSW
Pressure: 30.21"   Gusts: NA
Location:  56°N, 4.58°W
Report Text: EGPF 201950Z AUTO 24007KT 9999 -RA FEW024/// //////TCU 06/05 Q1023
Loading
Personal Weather Stations






























Interactive Weather Map New forecast layout! Learn more

10-Day Weather Forecast

Advertisements
Track Severe Weather on mobile